createdAt,value
2022-09-12T00:02:04.061Z,99676.69
2022-09-12T00:04:31.518Z,99650.34
2022-09-12T00:06:58.922Z,99671.44
2022-09-12T00:09:25.925Z,99662.66
2022-09-12T00:11:53.036Z,99660.91
2022-09-12T00:14:20.339Z,99657.38
2022-09-12T00:16:47.382Z,99669.69
2022-09-12T00:19:14.819Z,99660.91
2022-09-12T00:21:42.166Z,99647.75
2022-09-12T00:24:10.702Z,99664.41
2022-09-12T00:26:38.318Z,99633.66
2022-09-12T00:29:05.563Z,99655.63
2022-09-12T00:31:32.758Z,99640.69
2022-09-12T00:34:03.802Z,99649.44
2022-09-12T00:36:31.163Z,99655.56
2022-09-12T00:38:59.216Z,99648.56
2022-09-12T00:41:44.795Z,99645.94
2022-09-12T00:44:23.781Z,99645.03
2022-09-12T00:46:59.471Z,99637.16
2022-09-12T00:49:38.305Z,99626.63
2022-09-12T00:52:21.987Z,99631.91
2022-09-12T00:54:55.661Z,99632.78
2022-09-12T00:57:28.062Z,99636.31
2022-09-12T01:00:05.913Z,99620.50
2022-09-12T01:02:33.025Z,99620.47
2022-09-12T01:05:00.667Z,99599.41
2022-09-12T01:07:28.529Z,99630.13
2022-09-12T01:09:56.033Z,99648.56
2022-09-12T01:12:23.307Z,99609.91
2022-09-12T01:14:50.560Z,99615.16
2022-09-12T01:17:17.547Z,99630.94
2022-09-12T01:20:22.095Z,99660.75
2022-09-12T01:23:20.613Z,99652.00
2022-09-12T01:26:15.051Z,99649.34
2022-09-12T01:29:16.111Z,99641.47
2022-09-12T01:31:48.437Z,99609.78
2022-09-12T01:34:22.416Z,99641.44
2022-09-12T01:37:01.749Z,99650.25
2022-09-12T01:40:00.149Z,99631.81
2022-09-12T01:42:41.312Z,99639.75
2022-09-12T01:45:18.630Z,99632.72
2022-09-12T01:48:02.126Z,99593.19
2022-09-12T01:50:34.177Z,99625.69
2022-09-12T01:53:23.181Z,99640.59
2022-09-12T01:56:02.588Z,99639.69
2022-09-12T01:58:38.347Z,99636.16
2022-09-12T02:01:11.523Z,99632.59
2022-09-12T02:03:50.990Z,99648.34
2022-09-12T02:06:29.813Z,99644.81
2022-09-12T02:09:07.760Z,99645.69
2022-09-12T02:11:38.649Z,99626.34
2022-09-12T02:14:15.954Z,99624.59
2022-09-12T02:16:49.735Z,99614.06
2022-09-12T02:19:21.044Z,99631.56
2022-09-12T02:21:56.768Z,99642.97
2022-09-12T02:24:30.571Z,99613.16
2022-09-12T02:27:03.528Z,99628.97
2022-09-12T02:29:30.764Z,99617.56
2022-09-12T02:31:59.390Z,99627.22
2022-09-12T02:34:40.188Z,99629.88
2022-09-12T02:37:30.029Z,99643.88
2022-09-12T02:39:58.188Z,99626.31
2022-09-12T02:42:25.743Z,99618.44
2022-09-12T02:44:55.700Z,99602.59
2022-09-12T02:47:31.636Z,99631.56
2022-09-12T02:50:00.453Z,99625.38
2022-09-12T02:52:28.915Z,99637.63
2022-09-12T02:54:58.424Z,99628.00
2022-09-12T02:57:25.803Z,99634.97
2022-09-12T02:59:57.456Z,99639.31
2022-09-12T03:02:54.878Z,99632.28
2022-09-12T03:05:56.805Z,99641.03
2022-09-12T03:08:44.435Z,99620.81
2022-09-12T03:11:14.792Z,99628.75
2022-09-12T03:13:47.502Z,99640.09
2022-09-12T03:16:22.987Z,99609.34
2022-09-12T03:19:03.761Z,99630.44
2022-09-12T03:21:49.912Z,99611.13
2022-09-12T03:24:29.729Z,99610.22
2022-09-12T03:27:16.719Z,99594.38
2022-09-12T03:29:46.351Z,99626.03
2022-09-12T03:32:13.589Z,99586.56
2022-09-12T03:34:40.663Z,99611.97
2022-09-12T03:37:07.672Z,99617.34
2022-09-12T03:39:34.654Z,99628.72
2022-09-12T03:42:01.591Z,99604.13
2022-09-12T03:44:28.807Z,99623.47
2022-09-12T03:46:55.833Z,99625.22
2022-09-12T03:49:22.779Z,99621.72
2022-09-12T03:51:49.749Z,99585.72
2022-09-12T03:54:17.104Z,99621.75
2022-09-12T03:56:44.549Z,99611.22
2022-09-12T03:59:11.553Z,99618.19
2022-09-12T04:01:38.602Z,99623.44
2022-09-12T04:04:05.608Z,99618.22
2022-09-12T04:06:32.587Z,99626.13
2022-09-12T04:09:00.440Z,99563.78
2022-09-12T04:11:27.411Z,99618.22
2022-09-12T04:13:54.536Z,99610.34
2022-09-12T04:16:21.723Z,99605.97
2022-09-12T04:18:48.829Z,99621.78
2022-09-12T04:21:18.513Z,99609.56
2022-09-12T04:23:45.752Z,99620.94
2022-09-12T04:26:14.018Z,99585.81
2022-09-12T04:28:41.649Z,99600.75
2022-09-12T04:31:12.998Z,99604.25
2022-09-12T04:33:40.157Z,99602.53
2022-09-12T04:36:10.598Z,99589.31
2022-09-12T04:38:37.859Z,99619.16
2022-09-12T04:41:13.159Z,99623.56
2022-09-12T04:43:40.560Z,99627.03
2022-09-12T04:46:09.328Z,99600.69
2022-09-12T04:48:37.423Z,99620.94
2022-09-12T04:51:16.685Z,99612.13
2022-09-12T04:53:47.681Z,99621.00
2022-09-12T04:56:14.976Z,99617.53
2022-09-12T04:58:42.237Z,99609.59
2022-09-12T05:01:10.587Z,99613.16
2022-09-12T05:03:43.285Z,99611.41
2022-09-12T05:06:14.330Z,99616.72
2022-09-12T05:08:41.950Z,99611.50
2022-09-12T05:11:13.928Z,99594.78
2022-09-12T05:13:41.333Z,99562.38
2022-09-12T05:16:11.816Z,99607.19
2022-09-12T05:18:39.692Z,99614.22
2022-09-12T05:21:09.586Z,99604.59
2022-09-12T05:23:36.730Z,99592.31
2022-09-12T05:26:06.017Z,99558.97
2022-09-12T05:28:35.912Z,99602.94
2022-09-12T05:31:04.425Z,99606.47
2022-09-12T05:33:35.549Z,99609.97
2022-09-12T05:36:04.364Z,99599.47
2022-09-12T05:38:31.308Z,99576.66
2022-09-12T05:41:14.675Z,99603.88
2022-09-12T05:43:45.302Z,99590.69
2022-09-12T05:46:17.711Z,99602.97
2022-09-12T05:48:46.862Z,99601.19
2022-09-12T05:51:25.580Z,99597.69
2022-09-12T05:53:58.140Z,99596.81
2022-09-12T05:56:28.014Z,99593.31
2022-09-12T05:59:03.471Z,99574.91
2022-09-12T06:01:32.455Z,99587.16
2022-09-12T06:04:01.773Z,99588.97
2022-09-12T06:06:31.316Z,99595.97
2022-09-12T06:09:01.026Z,99594.22
2022-09-12T06:11:32.137Z,99594.22
2022-09-12T06:14:00.138Z,99563.50
2022-09-12T06:16:29.765Z,99579.31
2022-09-12T06:18:59.895Z,99598.63
2022-09-12T06:21:28.598Z,99596.03
2022-09-12T06:23:55.799Z,99595.13
2022-09-12T06:26:26.445Z,99582.84
2022-09-12T06:28:55.407Z,99604.78
2022-09-12T06:31:30.311Z,99585.47
2022-09-12T06:34:01.240Z,99592.53
2022-09-12T06:36:31.890Z,99589.00
2022-09-12T06:39:01.171Z,99598.66
2022-09-12T06:41:31.198Z,99602.16
2022-09-12T06:43:59.316Z,99596.03
2022-09-12T06:46:27.421Z,99588.13
2022-09-12T06:48:57.221Z,99601.28
2022-09-12T06:51:24.775Z,99595.16
2022-09-12T06:53:52.478Z,99611.81
2022-09-12T06:56:21.809Z,99610.06
2022-09-12T06:58:51.032Z,99589.88
2022-09-12T07:01:20.942Z,99574.06
2022-09-12T07:03:52.798Z,99566.19
2022-09-12T07:06:24.252Z,99499.56
2022-09-12T07:08:51.653Z,99526.75
2022-09-12T07:11:24.740Z,99588.97
2022-09-12T07:13:54.081Z,99609.16
2022-09-12T07:16:21.423Z,99608.28
2022-09-12T07:18:57.295Z,99584.59
2022-09-12T07:21:24.965Z,99590.78
2022-09-12T07:23:55.410Z,99608.31
2022-09-12T07:26:25.015Z,99611.81
2022-09-12T07:28:54.292Z,99612.66
2022-09-12T07:31:24.563Z,99612.69
2022-09-12T07:33:54.616Z,99611.78
2022-09-12T07:36:25.409Z,99609.19
2022-09-12T07:38:57.527Z,99617.94
2022-09-12T07:41:27.675Z,99608.28
2022-09-12T07:43:56.882Z,99618.84
2022-09-12T07:46:25.724Z,99605.66
2022-09-12T07:48:54.130Z,99603.03
2022-09-12T07:51:22.883Z,99610.94
2022-09-12T07:53:50.706Z,99594.25
2022-09-12T07:56:19.887Z,99631.09
2022-09-12T07:58:47.539Z,99595.97
2022-09-12T08:01:16.566Z,99611.78
2022-09-12T08:03:45.998Z,99614.38
2022-09-12T08:06:20.425Z,99623.13
2022-09-12T08:08:48.929Z,99619.59
2022-09-12T08:11:19.148Z,99624.81
2022-09-12T08:13:47.442Z,99608.16
2022-09-12T08:16:21.102Z,99630.94
2022-09-12T08:18:49.580Z,99613.38
2022-09-12T08:21:25.422Z,99605.47
2022-09-12T08:23:58.108Z,99615.16
2022-09-12T08:26:25.339Z,99601.13
2022-09-12T08:28:53.546Z,99614.31
2022-09-12T08:31:23.542Z,99609.84
2022-09-12T08:33:51.179Z,99611.59
2022-09-12T08:36:21.524Z,99608.06
2022-09-12T08:39:00.029Z,99602.78
2022-09-12T08:41:55.544Z,99609.78
2022-09-12T08:45:00.695Z,99600.94
2022-09-12T08:47:38.905Z,99604.53
2022-09-12T08:50:12.234Z,99610.63
2022-09-12T08:52:39.305Z,99602.69
2022-09-12T08:55:13.516Z,99601.72
2022-09-12T08:57:40.832Z,99599.00
2022-09-12T09:00:14.085Z,99576.25
2022-09-12T09:03:03.494Z,99587.59
2022-09-12T09:05:58.086Z,99612.94
2022-09-12T09:08:43.266Z,99569.06
2022-09-12T09:11:34.516Z,99611.00
2022-09-12T09:14:47.099Z,99609.25
2022-09-12T09:17:20.359Z,99607.44
2022-09-12T09:20:13.552Z,99595.06
2022-09-12T09:22:46.635Z,99601.22
2022-09-12T09:25:41.163Z,99598.50
2022-09-12T09:28:16.968Z,99591.50
2022-09-12T09:30:46.115Z,99598.34
2022-09-12T09:33:21.589Z,99607.13
2022-09-12T09:36:07.777Z,99603.56
2022-09-12T09:38:59.996Z,99592.13
2022-09-12T09:41:45.133Z,99615.69
2022-09-12T09:44:12.113Z,99599.19
2022-09-12T09:46:39.264Z,99606.13
2022-09-12T09:49:07.964Z,99612.25
2022-09-12T09:51:38.827Z,99619.38
2022-09-12T09:54:31.885Z,99603.50
2022-09-12T09:56:58.926Z,99600.91
2022-09-12T09:59:32.062Z,99600.94
2022-09-12T10:02:03.645Z,99594.88
2022-09-12T10:04:39.204Z,99611.53
2022-09-12T10:07:18.930Z,99606.34
2022-09-12T10:10:06.349Z,99520.56
2022-09-12T10:12:33.772Z,99589.69
2022-09-12T10:15:20.643Z,99612.31
2022-09-12T10:17:50.954Z,99610.50
2022-09-12T10:20:36.594Z,99621.06
2022-09-12T10:23:18.915Z,99596.47
2022-09-12T10:25:58.358Z,99594.63
2022-09-12T10:28:37.521Z,99612.13
2022-09-12T10:31:05.887Z,99597.88
2022-09-12T10:33:42.817Z,99573.16
2022-09-12T10:36:10.059Z,99579.06
2022-09-12T10:38:37.365Z,99602.53
2022-09-12T10:41:09.682Z,99611.31
2022-09-12T10:43:39.186Z,99603.31
2022-09-12T10:46:15.845Z,99601.38
2022-09-12T10:48:44.771Z,99602.94
2022-09-12T10:51:32.132Z,99600.00
2022-09-12T10:54:03.397Z,99585.69
2022-09-12T10:56:39.395Z,99599.63
2022-09-12T10:59:41.539Z,99604.25
2022-09-12T11:02:31.192Z,99591.41
2022-09-12T11:05:04.251Z,99595.81
2022-09-12T11:07:34.671Z,99582.41
2022-09-12T11:10:01.804Z,99594.56
2022-09-12T11:12:58.465Z,99583.22
2022-09-12T11:15:47.898Z,99592.31
2022-09-12T11:18:29.878Z,99587.13
2022-09-12T11:20:57.202Z,99593.44
2022-09-12T11:23:42.793Z,99589.88
2022-09-12T11:26:43.637Z,99588.19
2022-09-12T11:29:16.490Z,99592.59
2022-09-12T11:32:07.822Z,99591.72
2022-09-12T11:34:58.354Z,99586.47
2022-09-12T11:38:00.553Z,99594.41
2022-09-12T11:40:36.659Z,99589.88
2022-09-12T11:43:28.335Z,99568.84
2022-09-12T11:46:01.530Z,99568.75
2022-09-12T11:48:44.986Z,99570.38
2022-09-12T11:51:21.029Z,99585.19
2022-09-12T11:54:09.718Z,99582.50
2022-09-12T11:56:43.365Z,99540.44
2022-09-12T11:59:40.692Z,99578.09
2022-09-12T12:02:15.233Z,99575.56
2022-09-12T12:04:59.794Z,99572.19
2022-09-12T12:07:27.225Z,99570.47
2022-09-12T12:09:55.895Z,99560.81
2022-09-12T12:12:28.145Z,99570.31
2022-09-12T12:14:56.737Z,99568.56
2022-09-12T12:17:25.668Z,99558.75
2022-09-12T12:20:09.840Z,99560.19
2022-09-12T12:22:37.500Z,99559.44
2022-09-12T12:25:29.892Z,99552.44
2022-09-12T12:28:01.596Z,99547.06
2022-09-12T12:30:31.592Z,99553.38
2022-09-12T12:33:10.827Z,99552.66
2022-09-12T12:35:42.542Z,99558.00
2022-09-12T12:38:45.007Z,99558.16
2022-09-12T12:41:18.193Z,99553.88
2022-09-12T12:43:49.121Z,99549.56
2022-09-12T12:46:21.083Z,99542.44
2022-09-12T12:49:17.539Z,99546.84
2022-09-12T12:51:53.459Z,99546.72
2022-09-12T12:54:30.627Z,99522.03
2022-09-12T12:57:06.512Z,99550.66
2022-09-12T12:59:34.202Z,99532.78
2022-09-12T13:02:01.948Z,99538.78
2022-09-12T13:04:32.749Z,99534.19
2022-09-12T13:07:08.493Z,99491.69
2022-09-12T13:09:48.748Z,99527.91
2022-09-12T13:12:27.396Z,99522.22
2022-09-12T13:15:02.625Z,99523.78
2022-09-12T13:17:47.277Z,99523.69
2022-09-12T13:20:27.982Z,99530.63
2022-09-12T13:22:56.077Z,99534.84
2022-09-12T13:25:34.910Z,99522.66
2022-09-12T13:28:16.127Z,99535.88
2022-09-12T13:30:47.660Z,99502.72
2022-09-12T13:33:30.368Z,99536.41
2022-09-12T13:36:00.271Z,99534.19
2022-09-12T13:38:56.520Z,99519.94
2022-09-12T13:41:38.710Z,99521.72
2022-09-12T13:44:10.297Z,99515.25
2022-09-12T13:46:40.726Z,99523.66
2022-09-12T13:49:31.741Z,99525.22
2022-09-12T13:52:17.588Z,99527.16
2022-09-12T13:54:48.641Z,99517.59
2022-09-12T13:57:41.374Z,99512.69
2022-09-12T14:00:19.798Z,99511.41
2022-09-12T14:02:48.391Z,99506.78
2022-09-12T14:05:26.089Z,99514.63
2022-09-12T14:07:59.377Z,99514.00
2022-09-12T14:10:31.983Z,99505.66
2022-09-12T14:13:01.504Z,99511.84
2022-09-12T14:15:36.031Z,99516.38
2022-09-12T14:18:06.011Z,99510.63
2022-09-12T14:20:38.301Z,99497.41
2022-09-12T14:23:27.671Z,99525.31
2022-09-12T14:25:56.649Z,99516.16
2022-09-12T14:28:24.237Z,99483.81
2022-09-12T14:31:02.687Z,99525.97
2022-09-12T14:33:47.652Z,99518.06
2022-09-12T14:36:26.754Z,99506.38
2022-09-12T14:39:15.747Z,99522.88
2022-09-12T14:41:43.509Z,99502.31
2022-09-12T14:44:17.862Z,99529.59
2022-09-12T14:46:45.155Z,99542.25
2022-09-12T14:49:18.914Z,99537.09
2022-09-12T14:51:52.472Z,99532.66
2022-09-12T14:54:28.662Z,99543.22
2022-09-12T14:56:58.610Z,99531.72
2022-09-12T14:59:39.282Z,99522.53
2022-09-12T15:02:22.293Z,99535.88
2022-09-12T15:05:20.417Z,99519.41
2022-09-12T15:07:58.958Z,99507.44
2022-09-12T15:10:35.739Z,99498.06
2022-09-12T15:13:09.279Z,99529.13
2022-09-12T15:15:37.807Z,99524.09
2022-09-12T15:18:08.590Z,99541.94
2022-09-12T15:20:40.990Z,99523.75
2022-09-12T15:23:15.485Z,99534.31
2022-09-12T15:25:42.772Z,99509.13
2022-09-12T15:28:19.707Z,99534.63
2022-09-12T15:30:50.499Z,99536.44
2022-09-12T15:33:20.460Z,99540.81
2022-09-12T15:35:47.593Z,99543.53
2022-09-12T15:38:14.773Z,99545.44
2022-09-12T15:40:41.865Z,99524.50
2022-09-12T15:43:12.973Z,99535.00
2022-09-12T15:45:43.348Z,99556.13
2022-09-12T15:48:10.362Z,99552.66
2022-09-12T15:50:37.729Z,99565.91
2022-09-12T15:53:05.020Z,99556.25
2022-09-12T15:55:32.500Z,99566.00
2022-09-12T15:58:04.890Z,99569.56
2022-09-12T16:00:34.411Z,99520.50
2022-09-12T16:03:01.894Z,99571.34
2022-09-12T16:05:29.732Z,99579.28
2022-09-12T16:07:56.771Z,99579.38
2022-09-12T16:10:26.754Z,99579.41
2022-09-12T16:12:53.968Z,99563.66
2022-09-12T16:15:24.125Z,99563.72
2022-09-12T16:17:51.999Z,99564.63
2022-09-12T16:20:19.720Z,99583.03
2022-09-12T16:22:47.202Z,99576.03
2022-09-12T16:25:14.479Z,99544.56
2022-09-12T16:27:42.097Z,99556.88
2022-09-12T16:30:10.777Z,99566.50
2022-09-12T16:32:37.926Z,99569.16
2022-09-12T16:35:05.520Z,99542.91
2022-09-12T16:37:34.749Z,99580.56
2022-09-12T16:40:03.133Z,99569.16
2022-09-12T16:42:31.225Z,99563.94
2022-09-12T16:44:58.364Z,99581.47
2022-09-12T16:47:25.491Z,99581.50
2022-09-12T16:49:52.559Z,99581.50
2022-09-12T16:52:19.823Z,99583.22
2022-09-12T16:54:46.902Z,99592.06
2022-09-12T16:57:14.107Z,99550.88
2022-09-12T16:59:41.414Z,99571.03
2022-09-12T17:02:14.481Z,99600.88
2022-09-12T17:04:42.138Z,99594.75
2022-09-12T17:07:09.307Z,99602.66
2022-09-12T17:09:36.434Z,99580.75
2022-09-12T17:12:04.250Z,99593.88
2022-09-12T17:14:31.710Z,99600.94
2022-09-12T17:16:58.969Z,99576.41
2022-09-12T17:19:30.028Z,99602.69
2022-09-12T17:21:57.969Z,99606.19
2022-09-12T17:24:25.779Z,99588.66
2022-09-12T17:26:53.791Z,99594.81
2022-09-12T17:29:21.222Z,99600.06
2022-09-12T17:31:48.923Z,99597.47
2022-09-12T17:34:17.708Z,99603.59
2022-09-12T17:36:48.704Z,99596.56
2022-09-12T17:39:15.996Z,99588.75
2022-09-12T17:41:50.987Z,99599.25
2022-09-12T17:44:21.062Z,99598.41
2022-09-12T17:46:49.688Z,99604.53
2022-09-12T17:49:22.232Z,99564.19
2022-09-12T17:51:52.227Z,99593.13
2022-09-12T17:54:21.046Z,99597.56
2022-09-12T17:56:52.502Z,99600.19
2022-09-12T17:59:27.557Z,99586.16
2022-09-12T18:02:13.724Z,99569.50
2022-09-12T18:04:42.403Z,99569.47
2022-09-12T18:07:10.423Z,99589.69
2022-09-12T18:09:37.820Z,99596.72
2022-09-12T18:12:05.654Z,99600.25
2022-09-12T18:14:38.347Z,99590.56
2022-09-12T18:17:08.995Z,99587.91
2022-09-12T18:19:36.446Z,99588.81
2022-09-12T18:22:06.847Z,99591.44
2022-09-12T18:24:35.941Z,99596.72
2022-09-12T18:27:04.381Z,99589.66
2022-09-12T18:29:31.955Z,99580.06
2022-09-12T18:31:59.514Z,99599.34
2022-09-12T18:34:26.726Z,99590.59
2022-09-12T18:36:55.273Z,99561.69
2022-09-12T18:39:27.301Z,99600.25
2022-09-12T18:41:57.125Z,99569.59
2022-09-12T18:44:25.473Z,99587.13
2022-09-12T18:46:53.178Z,99597.63
2022-09-12T18:49:21.188Z,99594.97
2022-09-12T18:51:49.861Z,99588.84
2022-09-12T18:54:18.416Z,99594.13
2022-09-12T18:56:47.774Z,99600.25
2022-09-12T18:59:16.766Z,99591.50
2022-09-12T19:01:52.657Z,99585.38
2022-09-12T19:04:20.671Z,99569.59
2022-09-12T19:06:48.447Z,99556.44
2022-09-12T19:09:18.710Z,99588.84
2022-09-12T19:11:50.707Z,99580.13
2022-09-12T19:14:27.579Z,99576.59
2022-09-12T19:16:55.822Z,99581.84
2022-09-12T19:19:23.121Z,99585.38
2022-09-12T19:21:50.204Z,99592.41
2022-09-12T19:24:21.926Z,99579.25
2022-09-12T19:26:51.555Z,99570.47
2022-09-12T19:29:19.087Z,99580.09
2022-09-12T19:31:46.645Z,99589.78
2022-09-12T19:34:14.192Z,99557.34
2022-09-12T19:36:45.258Z,99584.50
2022-09-12T19:39:13.048Z,99587.16
2022-09-12T19:41:40.479Z,99592.41
2022-09-12T19:44:07.908Z,99587.16
2022-09-12T19:46:35.554Z,99560.81
2022-09-12T19:49:03.882Z,99584.50
2022-09-12T19:51:31.715Z,99567.00
2022-09-12T19:53:58.915Z,99582.75
2022-09-12T19:56:25.986Z,99583.63
2022-09-12T19:58:56.376Z,99576.59
2022-09-12T20:01:29.792Z,99573.97
2022-09-12T20:03:59.033Z,99545.06
2022-09-12T20:06:27.536Z,99553.78
2022-09-12T20:08:55.359Z,99495.09
2022-09-12T20:11:23.812Z,99576.56
2022-09-12T20:13:51.245Z,99573.03
2022-09-12T20:16:25.365Z,99565.13
2022-09-12T20:18:55.250Z,99580.94
2022-09-12T20:21:25.856Z,99576.56
2022-09-12T20:23:52.946Z,99578.34
2022-09-12T20:26:23.605Z,99568.66
2022-09-12T20:28:54.444Z,99576.56
2022-09-12T20:31:24.609Z,99573.94
2022-09-12T20:33:55.900Z,99579.22
2022-09-12T20:36:26.842Z,99562.53
2022-09-12T20:38:57.599Z,99570.44
2022-09-12T20:41:30.141Z,99564.28
2022-09-12T20:44:02.381Z,99577.47
2022-09-12T20:46:30.762Z,99567.81
2022-09-12T20:48:59.328Z,99540.66
2022-09-12T20:51:27.921Z,99543.25
2022-09-12T20:53:58.381Z,99527.47
2022-09-12T20:56:27.668Z,99543.25
2022-09-12T20:58:56.552Z,99560.78
2022-09-12T21:01:25.487Z,99544.09
2022-09-12T21:03:54.721Z,99460.91
2022-09-12T21:06:22.930Z,99552.94
2022-09-12T21:08:50.883Z,99556.41
2022-09-12T21:11:19.615Z,99549.41
2022-09-12T21:13:47.245Z,99554.66
2022-09-12T21:16:20.529Z,99543.28
2022-09-12T21:18:52.657Z,99546.81
2022-09-12T21:21:19.665Z,99539.78
2022-09-12T21:23:47.155Z,99538.94
2022-09-12T21:26:14.203Z,99549.47
2022-09-12T21:28:41.222Z,99543.31
2022-09-12T21:31:14.924Z,99504.75
2022-09-12T21:33:42.143Z,99503.88
2022-09-12T21:36:09.917Z,99510.03
2022-09-12T21:38:36.907Z,99521.44
2022-09-12T21:41:04.790Z,99538.09
2022-09-12T21:43:31.807Z,99515.28
2022-09-12T21:45:59.881Z,99503.91
2022-09-12T21:48:26.979Z,99522.34
2022-09-12T21:50:54.208Z,99532.84
2022-09-12T21:53:21.317Z,99486.38
2022-09-12T21:55:48.306Z,99521.44
2022-09-12T21:58:15.379Z,99524.94
2022-09-12T22:00:42.867Z,99485.50
2022-09-12T22:03:10.547Z,99514.44
2022-09-12T22:05:40.411Z,99510.94
2022-09-12T22:08:08.581Z,99493.41
2022-09-12T22:10:36.594Z,99489.00
2022-09-12T22:13:03.583Z,99507.44
2022-09-12T22:15:45.929Z,99498.66
2022-09-12T22:18:13.158Z,99515.34
2022-09-12T22:20:40.171Z,99500.41
2022-09-12T22:23:30.274Z,99511.81
2022-09-12T22:25:57.639Z,99488.16
2022-09-12T22:28:25.268Z,99511.81
2022-09-12T22:30:54.528Z,99476.78
2022-09-12T22:33:22.321Z,99501.31
2022-09-12T22:35:49.361Z,99472.38
2022-09-12T22:38:16.332Z,99499.53
2022-09-12T22:40:44.115Z,99482.91
2022-09-12T22:43:11.595Z,99478.50
2022-09-12T22:45:41.930Z,99501.31
2022-09-12T22:48:11.907Z,99517.94
2022-09-12T22:50:38.892Z,99510.09
2022-09-12T22:53:05.852Z,99498.69
2022-09-12T22:55:32.858Z,99491.66
2022-09-12T22:58:00.036Z,99472.41
2022-09-12T23:00:28.121Z,99476.78
2022-09-12T23:02:55.708Z,99496.03
2022-09-12T23:05:23.166Z,99496.06
2022-09-12T23:07:51.169Z,99494.28
2022-09-12T23:10:18.212Z,99446.09
2022-09-12T23:12:45.163Z,99452.22
2022-09-12T23:15:12.133Z,99441.69
2022-09-12T23:17:39.129Z,99450.47
2022-09-12T23:20:06.731Z,99489.91
2022-09-12T23:22:36.338Z,99483.78
2022-09-12T23:25:03.677Z,99482.03
2022-09-12T23:27:30.898Z,99488.19
2022-09-12T23:29:58.037Z,99466.22
2022-09-12T23:32:25.153Z,99491.66
2022-09-12T23:34:53.026Z,99478.50
2022-09-12T23:37:21.821Z,99489.03
2022-09-12T23:39:49.865Z,99447.81
2022-09-12T23:42:17.479Z,99470.63
2022-09-12T23:44:44.443Z,99474.16
2022-09-12T23:47:11.424Z,99445.19
2022-09-12T23:49:38.572Z,99466.25
2022-09-12T23:52:05.581Z,99487.28
2022-09-12T23:54:32.568Z,99385.59
2022-09-12T23:56:59.553Z,99466.25
2022-09-12T23:59:26.566Z,99465.38
